createdAt,value
2022-12-06T00:01:25.330Z,1.45
2022-12-06T00:03:54.247Z,1.45
2022-12-06T00:06:22.997Z,1.42
2022-12-06T00:08:50.720Z,1.44
2022-12-06T00:11:20.634Z,1.47
2022-12-06T00:13:48.008Z,1.64
2022-12-06T00:16:16.854Z,1.67
2022-12-06T00:18:45.148Z,1.64
2022-12-06T00:21:22.092Z,1.59
2022-12-06T00:23:54.026Z,1.54
2022-12-06T00:26:21.391Z,1.56
2022-12-06T00:28:48.371Z,1.58
2022-12-06T00:31:20.376Z,1.61
2022-12-06T00:33:47.745Z,1.61
2022-12-06T00:36:17.880Z,1.60
2022-12-06T00:38:45.182Z,1.53
2022-12-06T00:41:14.486Z,1.49
2022-12-06T00:43:41.471Z,1.42
2022-12-06T00:46:11.869Z,1.35
2022-12-06T00:48:38.482Z,1.32
2022-12-06T00:51:05.403Z,1.26
2022-12-06T00:53:32.059Z,1.19
2022-12-06T00:55:58.603Z,1.20
2022-12-06T00:58:25.482Z,1.09
2022-12-06T01:00:52.214Z,1.02
2022-12-06T01:03:19.114Z,0.91
2022-12-06T01:05:49.068Z,0.81
2022-12-06T01:08:17.332Z,0.72
2022-12-06T01:10:54.888Z,0.58
2022-12-06T01:13:21.718Z,0.48
2022-12-06T01:15:49.922Z,0.41
2022-12-06T01:18:16.482Z,0.33
2022-12-06T01:20:43.128Z,0.34
2022-12-06T01:23:09.672Z,0.32
2022-12-06T01:25:36.735Z,0.31
2022-12-06T01:28:03.720Z,0.33
2022-12-06T01:30:30.535Z,0.38
2022-12-06T01:32:57.175Z,0.44
2022-12-06T01:35:23.765Z,0.49
2022-12-06T01:37:50.320Z,0.49
2022-12-06T01:40:16.977Z,0.47
2022-12-06T01:42:43.538Z,0.49
2022-12-06T01:45:10.531Z,0.53
2022-12-06T01:47:40.870Z,0.57
2022-12-06T01:50:24.893Z,0.63
2022-12-06T01:52:57.507Z,0.69
2022-12-06T01:55:27.968Z,0.76
2022-12-06T01:58:00.720Z,0.78
2022-12-06T02:00:27.306Z,0.78
2022-12-06T02:02:55.844Z,0.84
2022-12-06T02:05:22.455Z,1.01
2022-12-06T02:07:49.470Z,0.97
2022-12-06T02:10:16.457Z,0.95
2022-12-06T02:12:43.349Z,1.45
2022-12-06T02:15:10.579Z,1.41
2022-12-06T02:18:05.671Z,1.23
2022-12-06T02:20:39.679Z,1.06
2022-12-06T02:23:18.112Z,0.95
2022-12-06T02:25:44.642Z,0.83
2022-12-06T02:28:26.586Z,0.72
2022-12-06T02:30:56.203Z,0.67
2022-12-06T02:33:25.411Z,0.54
2022-12-06T02:36:05.660Z,0.46
2022-12-06T02:38:35.075Z,0.38
2022-12-06T02:41:09.952Z,0.46
2022-12-06T02:43:48.358Z,0.53
2022-12-06T02:46:19.843Z,0.50
2022-12-06T02:48:52.134Z,0.62
2022-12-06T02:51:20.671Z,0.56
2022-12-06T02:53:52.030Z,0.43
2022-12-06T02:56:19.842Z,0.32
2022-12-06T02:58:46.891Z,0.23
2022-12-06T03:01:34.862Z,0.16
2022-12-06T03:04:07.406Z,0.22
2022-12-06T03:06:56.008Z,0.17
2022-12-06T03:10:03.812Z,0.15
2022-12-06T03:12:45.815Z,0.08
2022-12-06T03:15:51.869Z,0.20
2022-12-06T03:18:20.175Z,0.08
2022-12-06T03:20:52.689Z,0.06
2022-12-06T03:23:27.930Z,0.08
2022-12-06T03:25:58.578Z,0.05
2022-12-06T03:28:26.442Z,0.01
2022-12-06T03:30:57.722Z,0.03
2022-12-06T03:33:28.011Z,0.07
2022-12-06T03:35:57.719Z,0.08
2022-12-06T03:38:52.973Z,0.02
2022-12-06T03:41:21.956Z,-0.09
2022-12-06T03:43:48.541Z,-0.11
2022-12-06T03:46:19.137Z,-0.12
2022-12-06T03:48:53.281Z,-0.19
2022-12-06T03:51:28.294Z,-0.23
2022-12-06T03:53:58.974Z,-0.20
2022-12-06T03:56:27.927Z,-0.26
2022-12-06T03:58:54.615Z,-0.35
2022-12-06T04:01:21.304Z,-0.40
2022-12-06T04:03:48.102Z,-0.43
2022-12-06T04:06:15.162Z,-0.46
2022-12-06T04:08:41.780Z,-0.45
2022-12-06T04:11:08.356Z,-0.51
2022-12-06T04:13:35.753Z,-0.55
2022-12-06T04:16:02.467Z,-0.61
2022-12-06T04:18:29.577Z,-0.65
2022-12-06T04:21:20.508Z,-0.64
2022-12-06T04:23:51.925Z,-0.69
2022-12-06T04:26:20.988Z,-0.78
2022-12-06T04:29:07.094Z,-0.84
2022-12-06T04:31:52.192Z,-0.89
2022-12-06T04:34:37.560Z,-0.91
2022-12-06T04:37:23.073Z,-0.86
2022-12-06T04:39:49.865Z,-0.88
2022-12-06T04:42:35.541Z,-0.87
2022-12-06T04:45:02.388Z,-0.89
2022-12-06T04:47:29.189Z,-0.91
2022-12-06T04:49:55.754Z,-0.93
2022-12-06T04:52:22.424Z,-0.99
2022-12-06T04:54:49.027Z,-0.91
2022-12-06T04:57:16.764Z,-1.00
2022-12-06T04:59:46.144Z,-1.14
2022-12-06T05:02:15.012Z,-1.17
2022-12-06T05:04:41.921Z,-1.25
2022-12-06T05:07:09.844Z,-1.26
2022-12-06T05:09:36.435Z,-1.26
2022-12-06T05:12:03.042Z,-1.29
2022-12-06T05:14:29.633Z,-1.35
2022-12-06T05:16:56.233Z,-1.32
2022-12-06T05:19:22.913Z,-1.25
2022-12-06T05:21:49.449Z,-1.20
2022-12-06T05:24:16.176Z,-1.18
2022-12-06T05:26:42.948Z,-1.19
2022-12-06T05:29:09.824Z,-1.15
2022-12-06T05:31:36.387Z,-1.09
2022-12-06T05:34:03.038Z,-1.05
2022-12-06T05:36:29.620Z,-1.05
2022-12-06T05:38:56.368Z,-1.08
2022-12-06T05:41:23.243Z,-1.07
2022-12-06T05:43:50.335Z,-1.09
2022-12-06T05:46:17.673Z,-1.07
2022-12-06T05:48:44.762Z,-1.10
2022-12-06T05:51:11.499Z,-1.06
2022-12-06T05:53:38.112Z,-1.07
2022-12-06T05:56:06.769Z,-1.10
2022-12-06T05:58:33.470Z,-1.10
2022-12-06T06:01:00.074Z,-1.08
2022-12-06T06:03:27.116Z,-1.16
2022-12-06T06:05:58.308Z,-1.12
2022-12-06T06:08:25.119Z,-1.04
2022-12-06T06:10:51.695Z,-1.09
2022-12-06T06:13:18.300Z,-1.16
2022-12-06T06:15:44.949Z,-1.23
2022-12-06T06:18:11.511Z,-1.17
2022-12-06T06:20:38.072Z,-1.19
2022-12-06T06:23:04.644Z,-1.08
2022-12-06T06:25:31.191Z,-1.00
2022-12-06T06:27:57.877Z,-1.04
2022-12-06T06:30:24.421Z,-1.01
2022-12-06T06:32:51.009Z,-0.92
2022-12-06T06:35:17.628Z,-0.86
2022-12-06T06:37:44.251Z,-0.93
2022-12-06T06:40:11.454Z,-0.97
2022-12-06T06:42:38.544Z,-0.93
2022-12-06T06:45:06.353Z,-0.97
2022-12-06T06:47:32.922Z,-0.95
2022-12-06T06:49:59.661Z,-0.96
2022-12-06T06:52:26.404Z,-0.92
2022-12-06T06:54:53.283Z,-0.93
2022-12-06T06:57:20.041Z,-0.91
2022-12-06T06:59:46.937Z,-1.00
2022-12-06T07:02:14.875Z,-1.05
2022-12-06T07:04:42.361Z,-1.12
2022-12-06T07:07:09.215Z,-1.00
2022-12-06T07:09:35.883Z,-1.06
2022-12-06T07:12:02.414Z,-1.13
2022-12-06T07:14:29.194Z,-1.13
2022-12-06T07:16:55.820Z,-1.08
2022-12-06T07:19:22.439Z,-1.02
2022-12-06T07:21:49.159Z,-1.00
2022-12-06T07:24:15.729Z,-0.99
2022-12-06T07:26:42.370Z,-0.97
2022-12-06T07:29:08.963Z,-0.99
2022-12-06T07:31:35.732Z,-0.96
2022-12-06T07:34:03.382Z,-0.93
2022-12-06T07:36:32.111Z,-0.83
2022-12-06T07:39:00.065Z,-0.64
2022-12-06T07:41:47.601Z,-0.47
2022-12-06T07:44:55.469Z,-0.30
2022-12-06T07:47:24.898Z,-0.10
2022-12-06T07:49:54.341Z,0.07
2022-12-06T07:52:20.902Z,-0.03
2022-12-06T07:54:47.483Z,-0.11
2022-12-06T07:57:14.079Z,-0.24
2022-12-06T07:59:40.664Z,-0.29
2022-12-06T08:02:16.628Z,-0.33
2022-12-06T08:04:43.398Z,-0.27
2022-12-06T08:07:10.300Z,-0.07
2022-12-06T08:09:36.936Z,0.29
2022-12-06T08:12:03.625Z,0.92
2022-12-06T08:14:30.419Z,1.36
2022-12-06T08:16:56.957Z,1.75
2022-12-06T08:19:23.492Z,2.09
2022-12-06T08:21:50.228Z,2.14
2022-12-06T08:24:16.896Z,2.21
2022-12-06T08:26:43.714Z,2.34
2022-12-06T08:29:10.358Z,2.10
2022-12-06T08:31:37.082Z,2.14
2022-12-06T08:34:04.444Z,1.94
2022-12-06T08:36:31.305Z,1.85
2022-12-06T08:39:00.296Z,1.77
2022-12-06T08:41:45.880Z,1.42
2022-12-06T08:44:14.361Z,1.41
2022-12-06T08:46:41.349Z,1.31
2022-12-06T08:49:08.175Z,1.25
2022-12-06T08:51:36.826Z,1.32
2022-12-06T08:54:04.317Z,1.30
2022-12-06T08:56:31.301Z,1.39
2022-12-06T08:58:58.177Z,1.37
2022-12-06T09:01:35.939Z,1.29
2022-12-06T09:04:06.351Z,1.34
2022-12-06T09:06:33.350Z,1.32
2022-12-06T09:08:59.873Z,1.27
2022-12-06T09:11:26.929Z,1.24
2022-12-06T09:13:53.522Z,1.25
2022-12-06T09:16:22.609Z,1.30
2022-12-06T09:18:51.557Z,1.25
2022-12-06T09:21:21.652Z,1.23
2022-12-06T09:23:48.302Z,1.21
2022-12-06T09:26:14.965Z,1.16
2022-12-06T09:28:43.516Z,1.17
2022-12-06T09:31:10.973Z,1.21
2022-12-06T09:33:37.697Z,1.26
2022-12-06T09:36:13.057Z,1.26
2022-12-06T09:38:42.462Z,1.24
2022-12-06T09:41:22.162Z,1.31
2022-12-06T09:44:07.230Z,1.33
2022-12-06T09:46:42.877Z,1.47
2022-12-06T09:49:26.203Z,1.50
2022-12-06T09:52:11.518Z,1.51
2022-12-06T09:54:38.892Z,1.51
2022-12-06T09:57:16.896Z,1.47
2022-12-06T10:00:11.267Z,1.55
2022-12-06T10:02:59.833Z,1.50
2022-12-06T10:05:41.329Z,1.54
2022-12-06T10:08:32.730Z,1.58
2022-12-06T10:11:16.203Z,1.59
2022-12-06T10:13:56.553Z,1.66
2022-12-06T10:16:48.086Z,1.60
2022-12-06T10:19:45.525Z,1.74
2022-12-06T10:22:26.963Z,1.93
2022-12-06T10:25:20.082Z,1.85
2022-12-06T10:27:57.926Z,1.96
2022-12-06T10:30:24.621Z,1.98
2022-12-06T10:33:05.676Z,1.97
2022-12-06T10:35:35.386Z,1.87
2022-12-06T10:38:34.516Z,1.91
2022-12-06T10:41:33.336Z,1.92
2022-12-06T10:44:15.135Z,1.90
2022-12-06T10:47:06.628Z,1.82
2022-12-06T10:49:39.496Z,1.73
2022-12-06T10:52:24.435Z,1.75
2022-12-06T10:55:02.606Z,1.78
2022-12-06T10:57:37.762Z,1.89
2022-12-06T11:00:15.022Z,1.91
2022-12-06T11:02:51.322Z,2.05
2022-12-06T11:05:26.020Z,1.95
2022-12-06T11:08:00.923Z,1.85
2022-12-06T11:10:31.597Z,1.92
2022-12-06T11:13:16.643Z,1.94
2022-12-06T11:15:51.258Z,2.03
2022-12-06T11:18:18.385Z,2.36
2022-12-06T11:20:58.684Z,2.55
2022-12-06T11:23:51.054Z,2.44
2022-12-06T11:26:37.541Z,2.58
2022-12-06T11:29:10.048Z,2.41
2022-12-06T11:31:47.220Z,2.32
2022-12-06T11:34:17.141Z,2.53
2022-12-06T11:36:46.667Z,2.77
2022-12-06T11:39:14.785Z,2.66
2022-12-06T11:41:43.687Z,2.50
2022-12-06T11:44:18.656Z,2.63
2022-12-06T11:46:49.948Z,2.47
2022-12-06T11:49:32.621Z,2.34
2022-12-06T11:52:04.146Z,2.28
2022-12-06T11:54:38.788Z,2.23
2022-12-06T11:57:22.226Z,2.40
2022-12-06T12:00:07.822Z,2.26
2022-12-06T12:02:40.413Z,2.11
2022-12-06T12:05:19.650Z,2.21
2022-12-06T12:07:58.111Z,2.13
2022-12-06T12:10:24.759Z,2.09
2022-12-06T12:13:10.029Z,2.11
2022-12-06T12:15:37.366Z,2.13
2022-12-06T12:18:05.638Z,2.19
2022-12-06T12:20:38.594Z,2.23
2022-12-06T12:23:22.587Z,2.23
2022-12-06T12:26:10.140Z,2.25
2022-12-06T12:28:38.643Z,2.30
2022-12-06T12:31:15.929Z,2.34
2022-12-06T12:33:42.525Z,2.36
2022-12-06T12:36:16.418Z,2.31
2022-12-06T12:38:56.177Z,2.43
2022-12-06T12:41:39.376Z,2.39
2022-12-06T12:44:42.441Z,2.42
2022-12-06T12:47:20.236Z,2.47
2022-12-06T12:50:02.185Z,2.36
2022-12-06T12:52:31.554Z,2.36
2022-12-06T12:55:18.622Z,2.39
2022-12-06T12:57:48.834Z,2.36
2022-12-06T13:00:22.138Z,2.43
2022-12-06T13:03:01.857Z,2.47
2022-12-06T13:05:33.943Z,2.51
2022-12-06T13:08:13.059Z,2.55
2022-12-06T13:10:43.223Z,2.57
2022-12-06T13:13:16.984Z,2.57
2022-12-06T13:15:50.639Z,2.48
2022-12-06T13:18:23.050Z,2.44
2022-12-06T13:20:51.503Z,2.52
2022-12-06T13:23:21.899Z,2.53
2022-12-06T13:25:59.936Z,2.49
2022-12-06T13:28:31.534Z,2.63
2022-12-06T13:31:07.311Z,2.48
2022-12-06T13:33:39.075Z,2.49
2022-12-06T13:36:08.139Z,2.45
2022-12-06T13:38:39.229Z,2.44
2022-12-06T13:41:13.878Z,2.49
2022-12-06T13:43:40.416Z,2.49
2022-12-06T13:46:07.311Z,2.47
2022-12-06T13:48:37.896Z,2.54
2022-12-06T13:51:04.552Z,2.51
2022-12-06T13:53:35.920Z,2.63
2022-12-06T13:56:24.101Z,2.62
2022-12-06T13:58:58.808Z,2.63
2022-12-06T14:01:44.836Z,2.61
2022-12-06T14:04:23.711Z,2.54
2022-12-06T14:06:52.978Z,2.60
2022-12-06T14:09:20.165Z,2.82
2022-12-06T14:11:46.840Z,2.69
2022-12-06T14:14:17.656Z,2.72
2022-12-06T14:16:54.259Z,2.66
2022-12-06T14:19:50.258Z,2.53
2022-12-06T14:22:26.723Z,2.46
2022-12-06T14:24:58.655Z,2.42
2022-12-06T14:27:27.546Z,2.39
2022-12-06T14:30:06.488Z,2.42
2022-12-06T14:32:38.383Z,2.43
2022-12-06T14:35:10.389Z,2.39
2022-12-06T14:37:37.146Z,2.40
2022-12-06T14:40:44.697Z,2.36
2022-12-06T14:43:17.156Z,2.37
2022-12-06T14:45:45.218Z,2.38
2022-12-06T14:48:12.961Z,2.40
2022-12-06T14:50:56.580Z,2.36
2022-12-06T14:53:33.247Z,2.38
2022-12-06T14:56:20.260Z,2.32
2022-12-06T14:58:47.093Z,2.31
2022-12-06T15:01:23.452Z,2.37
2022-12-06T15:04:05.349Z,2.36
2022-12-06T15:06:32.961Z,2.27
2022-12-06T15:08:59.481Z,2.29
2022-12-06T15:11:53.883Z,2.27
2022-12-06T15:14:27.644Z,2.21
2022-12-06T15:17:04.704Z,2.24
2022-12-06T15:19:34.651Z,2.22
2022-12-06T15:22:01.587Z,2.20
2022-12-06T15:24:28.989Z,2.10
2022-12-06T15:26:55.653Z,2.08
2022-12-06T15:29:23.297Z,2.05
2022-12-06T15:31:54.844Z,2.00
2022-12-06T15:34:27.748Z,1.97
2022-12-06T15:37:15.189Z,1.96
2022-12-06T15:39:43.023Z,1.92
2022-12-06T15:42:23.738Z,2.12
2022-12-06T15:44:51.263Z,2.11
2022-12-06T15:47:21.001Z,1.97
2022-12-06T15:49:48.945Z,2.05
2022-12-06T15:52:17.908Z,1.89
2022-12-06T15:54:44.910Z,1.80
2022-12-06T15:57:11.586Z,1.74
2022-12-06T15:59:38.118Z,1.82
2022-12-06T16:02:15.443Z,2.14
2022-12-06T16:04:43.122Z,1.83
2022-12-06T16:07:10.635Z,1.64
2022-12-06T16:09:37.536Z,1.66
2022-12-06T16:12:04.392Z,1.56
2022-12-06T16:14:30.977Z,1.32
2022-12-06T16:16:57.551Z,1.17
2022-12-06T16:19:24.141Z,1.10
2022-12-06T16:21:53.779Z,1.00
2022-12-06T16:24:20.726Z,0.93
2022-12-06T16:26:48.063Z,0.87
2022-12-06T16:29:23.369Z,0.84
2022-12-06T16:31:51.430Z,0.79
2022-12-06T16:34:18.260Z,0.76
2022-12-06T16:37:06.631Z,0.73
2022-12-06T16:39:34.216Z,0.70
2022-12-06T16:42:01.592Z,0.69
2022-12-06T16:44:28.541Z,0.66
2022-12-06T16:46:55.229Z,0.64
2022-12-06T16:52:13.671Z,0.79
2022-12-06T16:54:41.386Z,0.80
2022-12-06T16:57:10.158Z,0.80
2022-12-06T16:59:37.119Z,0.85
2022-12-06T17:02:07.209Z,0.91
2022-12-06T17:04:38.187Z,1.02
2022-12-06T17:07:04.726Z,1.26
2022-12-06T17:09:31.276Z,1.17
2022-12-06T17:12:04.333Z,1.12
2022-12-06T17:14:30.920Z,1.12
2022-12-06T17:17:00.176Z,1.14
2022-12-06T17:19:28.270Z,1.20
2022-12-06T17:21:55.557Z,1.32
2022-12-06T17:24:23.818Z,1.32
2022-12-06T17:26:50.518Z,1.49
2022-12-06T17:29:17.562Z,1.59
2022-12-06T17:31:44.336Z,1.61
2022-12-06T17:34:14.266Z,1.52
2022-12-06T17:36:41.808Z,1.53
2022-12-06T17:39:15.516Z,1.50
2022-12-06T17:42:00.620Z,1.62
2022-12-06T17:44:27.417Z,1.50
2022-12-06T17:46:54.196Z,1.54
2022-12-06T17:49:23.145Z,1.63
2022-12-06T17:51:50.382Z,1.72
2022-12-06T17:54:18.031Z,1.98
2022-12-06T17:56:46.937Z,1.98
2022-12-06T17:59:19.724Z,1.84
2022-12-06T18:04:34.400Z,1.73
2022-12-06T18:07:00.919Z,1.72
2022-12-06T18:09:27.604Z,1.62
2022-12-06T18:11:55.633Z,1.64
2022-12-06T18:14:22.254Z,1.61
2022-12-06T18:16:48.953Z,1.59
2022-12-06T18:19:17.938Z,1.68
2022-12-06T18:21:45.007Z,1.70
2022-12-06T18:24:23.900Z,1.98
2022-12-06T18:26:53.319Z,2.06
2022-12-06T18:29:22.944Z,2.06
2022-12-06T18:31:50.370Z,2.05
2022-12-06T18:34:17.666Z,2.04
2022-12-06T18:36:44.297Z,1.86
2022-12-06T18:39:16.558Z,2.00
2022-12-06T18:41:44.451Z,1.93
2022-12-06T18:44:12.448Z,2.00
2022-12-06T18:46:42.260Z,2.13
2022-12-06T18:49:11.096Z,2.15
2022-12-06T18:51:38.776Z,2.00
2022-12-06T18:54:06.587Z,1.92
2022-12-06T18:56:34.562Z,1.86
2022-12-06T18:59:04.039Z,1.94
2022-12-06T19:01:36.865Z,1.91
2022-12-06T19:04:05.713Z,1.86
2022-12-06T19:06:35.261Z,2.13
2022-12-06T19:09:09.407Z,2.09
2022-12-06T19:11:38.401Z,1.98
2022-12-06T19:14:05.120Z,1.97
2022-12-06T19:16:37.560Z,1.97
2022-12-06T19:19:11.280Z,1.94
2022-12-06T19:21:39.505Z,1.92
2022-12-06T19:24:06.441Z,2.03
2022-12-06T19:26:33.928Z,1.94
2022-12-06T19:29:00.523Z,2.03
2022-12-06T19:31:27.152Z,1.94
2022-12-06T19:33:54.263Z,1.90
2022-12-06T19:36:28.626Z,1.84
2022-12-06T19:38:57.142Z,1.78
2022-12-06T19:41:24.004Z,1.79
2022-12-06T19:44:09.160Z,1.75
2022-12-06T19:46:36.062Z,1.73
2022-12-06T19:49:06.452Z,1.75
2022-12-06T19:51:37.848Z,1.79
2022-12-06T19:54:04.931Z,1.80
2022-12-06T19:56:31.669Z,1.76
2022-12-06T19:58:59.298Z,1.77
2022-12-06T20:01:29.926Z,1.77
2022-12-06T20:03:57.147Z,1.72
2022-12-06T20:06:26.339Z,1.78
2022-12-06T20:08:55.471Z,2.00
2022-12-06T20:11:42.178Z,1.93
2022-12-06T20:14:11.274Z,1.87
2022-12-06T20:16:38.256Z,1.84
2022-12-06T20:19:07.364Z,1.83
2022-12-06T20:21:35.030Z,1.84
2022-12-06T20:24:02.435Z,1.77
2022-12-06T20:26:31.274Z,1.91
2022-12-06T20:28:58.630Z,1.82
2022-12-06T20:31:27.811Z,1.79
2022-12-06T20:34:02.905Z,1.90
2022-12-06T20:36:31.850Z,1.95
2022-12-06T20:38:59.570Z,1.89
2022-12-06T20:41:30.049Z,1.87
2022-12-06T20:43:57.527Z,1.85
2022-12-06T20:46:28.042Z,1.94
2022-12-06T20:48:55.842Z,1.84
2022-12-06T20:51:27.239Z,1.77
2022-12-06T20:53:59.349Z,1.81
2022-12-06T20:56:29.404Z,1.88
2022-12-06T20:58:57.851Z,1.95
2022-12-06T21:01:26.900Z,1.88
2022-12-06T21:03:54.973Z,1.92
2022-12-06T21:06:24.000Z,1.95
2022-12-06T21:08:51.492Z,1.94
2022-12-06T21:11:24.007Z,1.83
2022-12-06T21:13:55.695Z,1.77
2022-12-06T21:16:27.985Z,1.74
2022-12-06T21:19:16.695Z,1.84
2022-12-06T21:21:53.296Z,1.77
2022-12-06T21:24:21.689Z,1.72
2022-12-06T21:26:49.074Z,1.80
2022-12-06T21:29:18.172Z,1.77
2022-12-06T21:31:45.634Z,1.78
2022-12-06T21:34:15.717Z,1.71
2022-12-06T21:36:42.839Z,1.81
2022-12-06T21:39:12.085Z,1.76
2022-12-06T21:41:39.056Z,1.76
2022-12-06T21:44:06.673Z,1.73
2022-12-06T21:46:33.390Z,1.71
2022-12-06T21:49:00.664Z,1.75
2022-12-06T21:51:29.605Z,1.70
2022-12-06T21:53:56.811Z,1.76
2022-12-06T21:56:28.964Z,1.79
2022-12-06T21:58:55.995Z,2.00
2022-12-06T22:01:27.754Z,1.92
2022-12-06T22:03:57.093Z,1.82
2022-12-06T22:06:24.619Z,1.79
2022-12-06T22:09:04.177Z,1.74
2022-12-06T22:11:31.140Z,1.80
2022-12-06T22:13:59.995Z,1.84
2022-12-06T22:16:27.908Z,1.81
2022-12-06T22:18:55.252Z,1.80
2022-12-06T22:21:25.687Z,1.87
2022-12-06T22:23:53.020Z,1.81
2022-12-06T22:26:21.920Z,1.79
2022-12-06T22:28:48.793Z,1.80
2022-12-06T22:31:16.886Z,1.81
2022-12-06T22:33:43.986Z,1.83
2022-12-06T22:36:11.781Z,1.79
2022-12-06T22:38:38.569Z,1.80
2022-12-06T22:41:05.969Z,1.82
2022-12-06T22:43:32.950Z,1.73
2022-12-06T22:46:08.741Z,1.70
2022-12-06T22:48:35.922Z,1.77
2022-12-06T22:51:12.939Z,1.71
2022-12-06T22:53:41.499Z,1.67
2022-12-06T22:56:08.934Z,1.63
2022-12-06T22:58:35.998Z,1.58
2022-12-06T23:01:16.111Z,1.56
2022-12-06T23:03:45.375Z,1.57
2022-12-06T23:06:12.835Z,1.61
2022-12-06T23:08:39.719Z,1.61
2022-12-06T23:11:13.482Z,1.69
2022-12-06T23:13:40.759Z,1.71
2022-12-06T23:16:10.744Z,1.68
2022-12-06T23:18:37.544Z,1.64
2022-12-06T23:21:10.813Z,1.68
2022-12-06T23:23:39.132Z,1.74
2022-12-06T23:26:08.560Z,1.68
2022-12-06T23:28:35.557Z,1.63
2022-12-06T23:31:07.544Z,1.58
2022-12-06T23:33:34.597Z,1.54
2022-12-06T23:36:03.326Z,1.56
2022-12-06T23:38:29.971Z,1.58
2022-12-06T23:41:02.121Z,1.58
2022-12-06T23:43:28.662Z,1.58
2022-12-06T23:45:58.552Z,1.61
2022-12-06T23:48:27.907Z,1.60
2022-12-06T23:51:02.874Z,1.59
2022-12-06T23:53:30.911Z,1.59
2022-12-06T23:56:04.542Z,1.67
2022-12-06T23:58:31.271Z,1.63
